sensor_id;sensor_type;location;lat;lon;timestamp;pressure;altitude;pressure_sealevel;temperature;humidity
24390;BME280;12510;56.468;-3.004;2024-01-30T00:02:25;53504.88;;;-148.32;nan
24390;BME280;12510;56.468;-3.004;2024-01-30T00:04:51;53480.97;;;-148.32;nan
24390;BME280;12510;56.468;-3.004;2024-01-30T00:07:17;53457.06;;;-148.32;nan
24390;BME280;12510;56.468;-3.004;2024-01-30T00:09:46;53482.97;;;-148.32;nan
24390;BME280;12510;56.468;-3.004;2024-01-30T00:12:12;53476.97;;;-148.32;nan
24390;BME280;12510;56.468;-3.004;2024-01-30T00:14:38;53500.88;;;-148.32;nan
24390;BME280;12510;56.468;-3.004;2024-01-30T00:17:04;53532.75;;;-148.32;nan
24390;BME280;12510;56.468;-3.004;2024-01-30T00:19:30;53522.78;;;-148.32;nan
24390;BME280;12510;56.468;-3.004;2024-01-30T00:21:56;53508.84;;;-148.32;nan
24390;BME280;12510;56.468;-3.004;2024-01-30T00:24:22;53516.81;;;-148.32;nan
24390;BME280;12510;56.468;-3.004;2024-01-30T00:26:48;53514.81;;;-148.32;nan
24390;BME280;12510;56.468;-3.004;2024-01-30T00:29:15;53484.94;;;-148.32;nan
24390;BME280;12510;56.468;-3.004;2024-01-30T00:31:45;53498.88;;;-148.32;nan
24390;BME280;12510;56.468;-3.004;2024-01-30T00:34:11;53522.78;;;-148.32;nan
24390;BME280;12510;56.468;-3.004;2024-01-30T00:36:37;53512.81;;;-148.32;nan
24390;BME280;12510;56.468;-3.004;2024-01-30T00:39:04;53498.88;;;-148.32;nan
24390;BME280;12510;56.468;-3.004;2024-01-30T00:41:35;53512.81;;;-148.32;nan
24390;BME280;12510;56.468;-3.004;2024-01-30T00:44:01;53500.88;;;-148.32;nan
24390;BME280;12510;56.468;-3.004;2024-01-30T00:46:27;53502.88;;;-148.32;nan
24390;BME280;12510;56.468;-3.004;2024-01-30T00:48:53;53480.97;;;-148.32;nan
24390;BME280;12510;56.468;-3.004;2024-01-30T00:51:19;53476.97;;;-148.32;nan
24390;BME280;12510;56.468;-3.004;2024-01-30T00:53:45;53465.03;;;-148.32;nan
24390;BME280;12510;56.468;-3.004;2024-01-30T00:56:11;53488.94;;;-148.32;nan
24390;BME280;12510;56.468;-3.004;2024-01-30T00:58:38;53488.94;;;-148.32;nan
24390;BME280;12510;56.468;-3.004;2024-01-30T01:01:04;53490.91;;;-148.32;nan
24390;BME280;12510;56.468;-3.004;2024-01-30T01:03:30;53457.06;;;-148.32;nan
24390;BME280;12510;56.468;-3.004;2024-01-30T01:05:56;53516.81;;;-148.32;nan
24390;BME280;12510;56.468;-3.004;2024-01-30T01:08:22;53488.94;;;-148.32;nan
24390;BME280;12510;56.468;-3.004;2024-01-30T01:10:48;53498.88;;;-148.32;nan
24390;BME280;12510;56.468;-3.004;2024-01-30T01:13:14;53486.94;;;-148.32;nan
24390;BME280;12510;56.468;-3.004;2024-01-30T01:15:41;53473.00;;;-148.32;nan
24390;BME280;12510;56.468;-3.004;2024-01-30T01:18:07;53516.81;;;-148.32;nan
24390;BME280;12510;56.468;-3.004;2024-01-30T01:20:33;53506.84;;;-148.32;nan
24390;BME280;12510;56.468;-3.004;2024-01-30T01:22:59;53526.78;;;-148.32;nan
24390;BME280;12510;56.468;-3.004;2024-01-30T01:25:25;53510.84;;;-148.32;nan
24390;BME280;12510;56.468;-3.004;2024-01-30T01:27:51;53530.75;;;-148.32;nan
24390;BME280;12510;56.468;-3.004;2024-01-30T01:30:18;53568.59;;;-148.32;nan
24390;BME280;12510;56.468;-3.004;2024-01-30T01:32:48;53544.69;;;-148.32;nan
24390;BME280;12510;56.468;-3.004;2024-01-30T01:35:21;53518.81;;;-148.32;nan
24390;BME280;12510;56.468;-3.004;2024-01-30T01:37:48;53530.75;;;-148.32;nan
24390;BME280;12510;56.468;-3.004;2024-01-30T01:40:21;53469.00;;;-148.32;nan
24390;BME280;12510;56.468;-3.004;2024-01-30T01:42:49;53461.06;;;-148.32;nan
24390;BME280;12510;56.468;-3.004;2024-01-30T01:45:15;53482.97;;;-148.32;nan
24390;BME280;12510;56.468;-3.004;2024-01-30T01:47:41;53476.97;;;-148.32;nan
24390;BME280;12510;56.468;-3.004;2024-01-30T01:50:07;53504.88;;;-148.32;nan
24390;BME280;12510;56.468;-3.004;2024-01-30T01:52:34;53486.94;;;-148.32;nan
24390;BME280;12510;56.468;-3.004;2024-01-30T01:55:00;53496.91;;;-148.32;nan
24390;BME280;12510;56.468;-3.004;2024-01-30T01:57:26;53572.56;;;-148.32;nan
24390;BME280;12510;56.468;-3.004;2024-01-30T01:59:52;53496.91;;;-148.32;nan
24390;BME280;12510;56.468;-3.004;2024-01-30T02:02:18;53473.00;;;-148.32;nan
24390;BME280;12510;56.468;-3.004;2024-01-30T02:04:46;53459.06;;;-148.32;nan
24390;BME280;12510;56.468;-3.004;2024-01-30T02:07:12;53437.16;;;-148.32;nan
24390;BME280;12510;56.468;-3.004;2024-01-30T02:09:38;53435.16;;;-148.32;nan
24390;BME280;12510;56.468;-3.004;2024-01-30T02:12:04;53463.03;;;-148.32;nan
24390;BME280;12510;56.468;-3.004;2024-01-30T02:14:30;53443.13;;;-148.32;nan
24390;BME280;12510;56.468;-3.004;2024-01-30T02:16:56;53437.16;;;-148.32;nan
24390;BME280;12510;56.468;-3.004;2024-01-30T02:19:22;53459.06;;;-148.32;nan
24390;BME280;12510;56.468;-3.004;2024-01-30T02:21:49;53445.13;;;-148.32;nan
24390;BME280;12510;56.468;-3.004;2024-01-30T02:24:15;53445.13;;;-148.32;nan
24390;BME280;12510;56.468;-3.004;2024-01-30T02:26:41;53504.88;;;-148.32;nan
24390;BME280;12510;56.468;-3.004;2024-01-30T02:29:08;53478.97;;;-148.32;nan
24390;BME280;12510;56.468;-3.004;2024-01-30T02:31:34;53471.00;;;-148.32;nan
24390;BME280;12510;56.468;-3.004;2024-01-30T02:34:00;53461.06;;;-148.32;nan
24390;BME280;12510;56.468;-3.004;2024-01-30T02:36:26;53484.94;;;-148.32;nan
24390;BME280;12510;56.468;-3.004;2024-01-30T02:38:52;53455.06;;;-148.32;nan
24390;BME280;12510;56.468;-3.004;2024-01-30T02:41:18;53461.06;;;-148.32;nan
24390;BME280;12510;56.468;-3.004;2024-01-30T02:43:45;53455.06;;;-148.32;nan
24390;BME280;12510;56.468;-3.004;2024-01-30T02:46:11;53465.03;;;-148.32;nan
24390;BME280;12510;56.468;-3.004;2024-01-30T02:48:37;53457.06;;;-148.32;nan
24390;BME280;12510;56.468;-3.004;2024-01-30T02:51:05;53488.94;;;-148.32;nan
24390;BME280;12510;56.468;-3.004;2024-01-30T02:53:31;53443.13;;;-148.32;nan
24390;BME280;12510;56.468;-3.004;2024-01-30T02:55:57;53431.19;;;-148.32;nan
24390;BME280;12510;56.468;-3.004;2024-01-30T02:58:23;53427.19;;;-148.32;nan
24390;BME280;12510;56.468;-3.004;2024-01-30T03:00:49;53441.13;;;-148.32;nan
24390;BME280;12510;56.468;-3.004;2024-01-30T03:03:16;53427.19;;;-148.32;nan
24390;BME280;12510;56.468;-3.004;2024-01-30T03:05:42;53433.16;;;-148.32;nan
24390;BME280;12510;56.468;-3.004;2024-01-30T03:08:08;53449.09;;;-148.32;nan
24390;BME280;12510;56.468;-3.004;2024-01-30T03:10:34;53415.25;;;-148.32;nan
24390;BME280;12510;56.468;-3.004;2024-01-30T03:13:00;53451.09;;;-148.32;nan
24390;BME280;12510;56.468;-3.004;2024-01-30T03:15:27;53447.09;;;-148.32;nan
24390;BME280;12510;56.468;-3.004;2024-01-30T03:17:53;53439.16;;;-148.32;nan
24390;BME280;12510;56.468;-3.004;2024-01-30T03:20:19;53471.00;;;-148.32;nan
24390;BME280;12510;56.468;-3.004;2024-01-30T03:22:45;53506.84;;;-148.32;nan
24390;BME280;12510;56.468;-3.004;2024-01-30T03:25:11;53498.88;;;-148.32;nan
24390;BME280;12510;56.468;-3.004;2024-01-30T03:27:37;53486.94;;;-148.32;nan
24390;BME280;12510;56.468;-3.004;2024-01-30T03:30:04;53500.88;;;-148.32;nan
24390;BME280;12510;56.468;-3.004;2024-01-30T03:32:30;53500.88;;;-148.32;nan
24390;BME280;12510;56.468;-3.004;2024-01-30T03:34:56;53488.94;;;-148.32;nan
24390;BME280;12510;56.468;-3.004;2024-01-30T03:37:23;53461.06;;;-148.32;nan
24390;BME280;12510;56.468;-3.004;2024-01-30T03:39:50;53514.81;;;-148.32;nan
24390;BME280;12510;56.468;-3.004;2024-01-30T03:42:16;53506.84;;;-148.32;nan
24390;BME280;12510;56.468;-3.004;2024-01-30T03:44:42;53496.91;;;-148.32;nan
24390;BME280;12510;56.468;-3.004;2024-01-30T03:47:08;53516.81;;;-148.32;nan
24390;BME280;12510;56.468;-3.004;2024-01-30T03:49:34;53516.81;;;-148.32;nan
24390;BME280;12510;56.468;-3.004;2024-01-30T03:52:00;53480.97;;;-148.32;nan
24390;BME280;12510;56.468;-3.004;2024-01-30T03:54:26;53514.81;;;-148.32;nan
24390;BME280;12510;56.468;-3.004;2024-01-30T03:56:53;53498.88;;;-148.32;nan
24390;BME280;12510;56.468;-3.004;2024-01-30T03:59:19;53500.88;;;-148.32;nan
24390;BME280;12510;56.468;-3.004;2024-01-30T04:01:50;53488.94;;;-148.32;nan
24390;BME280;12510;56.468;-3.004;2024-01-30T04:04:17;53502.88;;;-148.32;nan
24390;BME280;12510;56.468;-3.004;2024-01-30T04:06:44;53504.88;;;-148.32;nan
24390;BME280;12510;56.468;-3.004;2024-01-30T04:09:10;53471.00;;;-148.32;nan
24390;BME280;12510;56.468;-3.004;2024-01-30T04:11:37;53488.94;;;-148.32;nan
24390;BME280;12510;56.468;-3.004;2024-01-30T04:14:03;53486.94;;;-148.32;nan
24390;BME280;12510;56.468;-3.004;2024-01-30T04:16:29;53508.84;;;-148.32;nan
24390;BME280;12510;56.468;-3.004;2024-01-30T04:18:55;53524.78;;;-148.32;nan
24390;BME280;12510;56.468;-3.004;2024-01-30T04:21:21;53536.72;;;-148.32;nan
24390;BME280;12510;56.468;-3.004;2024-01-30T04:23:50;53538.72;;;-148.32;nan
24390;BME280;12510;56.468;-3.004;2024-01-30T04:26:17;53526.78;;;-148.32;nan
24390;BME280;12510;56.468;-3.004;2024-01-30T04:28:44;53514.81;;;-148.32;nan
24390;BME280;12510;56.468;-3.004;2024-01-30T04:31:10;53512.81;;;-148.32;nan
24390;BME280;12510;56.468;-3.004;2024-01-30T04:33:36;53516.81;;;-148.32;nan
24390;BME280;12510;56.468;-3.004;2024-01-30T04:36:03;53498.88;;;-148.32;nan
24390;BME280;12510;56.468;-3.004;2024-01-30T04:38:29;53500.88;;;-148.32;nan
24390;BME280;12510;56.468;-3.004;2024-01-30T04:40:55;53522.78;;;-148.32;nan
24390;BME280;12510;56.468;-3.004;2024-01-30T04:43:21;53500.88;;;-148.32;nan
24390;BME280;12510;56.468;-3.004;2024-01-30T04:45:48;53540.72;;;-148.32;nan
24390;BME280;12510;56.468;-3.004;2024-01-30T04:48:14;53552.66;;;-148.32;nan
24390;BME280;12510;56.468;-3.004;2024-01-30T04:50:41;53520.78;;;-148.32;nan
24390;BME280;12510;56.468;-3.004;2024-01-30T04:53:07;53528.75;;;-148.32;nan
24390;BME280;12510;56.468;-3.004;2024-01-30T04:55:34;53510.84;;;-148.32;nan
24390;BME280;12510;56.468;-3.004;2024-01-30T04:58:01;53504.88;;;-148.32;nan
24390;BME280;12510;56.468;-3.004;2024-01-30T05:00:27;53524.78;;;-148.32;nan
24390;BME280;12510;56.468;-3.004;2024-01-30T05:02:55;53532.75;;;-148.32;nan
24390;BME280;12510;56.468;-3.004;2024-01-30T05:05:21;53522.78;;;-148.32;nan
24390;BME280;12510;56.468;-3.004;2024-01-30T05:07:47;53536.72;;;-148.32;nan
24390;BME280;12510;56.468;-3.004;2024-01-30T05:10:13;53514.81;;;-148.32;nan
24390;BME280;12510;56.468;-3.004;2024-01-30T05:12:40;53478.97;;;-148.32;nan
24390;BME280;12510;56.468;-3.004;2024-01-30T05:15:06;53496.91;;;-148.32;nan
24390;BME280;12510;56.468;-3.004;2024-01-30T05:17:32;53496.91;;;-148.32;nan
24390;BME280;12510;56.468;-3.004;2024-01-30T05:19:59;53526.78;;;-148.32;nan
24390;BME280;12510;56.468;-3.004;2024-01-30T05:22:25;53492.91;;;-148.32;nan
24390;BME280;12510;56.468;-3.004;2024-01-30T05:24:51;53492.91;;;-148.32;nan
24390;BME280;12510;56.468;-3.004;2024-01-30T05:27:17;53500.88;;;-148.32;nan
24390;BME280;12510;56.468;-3.004;2024-01-30T05:29:43;53516.81;;;-148.32;nan
24390;BME280;12510;56.468;-3.004;2024-01-30T05:32:10;53514.81;;;-148.32;nan
24390;BME280;12510;56.468;-3.004;2024-01-30T05:34:36;53516.81;;;-148.32;nan
24390;BME280;12510;56.468;-3.004;2024-01-30T05:37:03;53478.97;;;-148.32;nan
24390;BME280;12510;56.468;-3.004;2024-01-30T05:39:29;53518.81;;;-148.32;nan
24390;BME280;12510;56.468;-3.004;2024-01-30T05:41:58;53520.78;;;-148.32;nan
24390;BME280;12510;56.468;-3.004;2024-01-30T05:44:25;53570.59;;;-148.32;nan
24390;BME280;12510;56.468;-3.004;2024-01-30T05:46:51;53554.66;;;-148.32;nan
24390;BME280;12510;56.468;-3.004;2024-01-30T05:49:17;53538.72;;;-148.32;nan
24390;BME280;12510;56.468;-3.004;2024-01-30T05:51:43;53508.84;;;-148.32;nan
24390;BME280;12510;56.468;-3.004;2024-01-30T05:54:09;53506.84;;;-148.32;nan
24390;BME280;12510;56.468;-3.004;2024-01-30T05:56:35;53514.81;;;-148.32;nan
24390;BME280;12510;56.468;-3.004;2024-01-30T05:59:01;53445.13;;;-148.32;nan
24390;BME280;12510;56.468;-3.004;2024-01-30T06:01:28;53447.09;;;-148.32;nan
24390;BME280;12510;56.468;-3.004;2024-01-30T06:03:55;53463.03;;;-148.32;nan
24390;BME280;12510;56.468;-3.004;2024-01-30T06:06:21;53459.06;;;-148.32;nan
24390;BME280;12510;56.468;-3.004;2024-01-30T06:08:47;53469.00;;;-148.32;nan
24390;BME280;12510;56.468;-3.004;2024-01-30T06:11:13;53449.09;;;-148.32;nan
24390;BME280;12510;56.468;-3.004;2024-01-30T06:13:39;53457.06;;;-148.32;nan
24390;BME280;12510;56.468;-3.004;2024-01-30T06:16:08;53453.09;;;-148.32;nan
24390;BME280;12510;56.468;-3.004;2024-01-30T06:18:34;53421.22;;;-148.32;nan
24390;BME280;12510;56.468;-3.004;2024-01-30T06:21:01;53459.06;;;-148.32;nan
24390;BME280;12510;56.468;-3.004;2024-01-30T06:23:27;53467.03;;;-148.32;nan
24390;BME280;12510;56.468;-3.004;2024-01-30T06:25:53;53461.06;;;-148.32;nan
24390;BME280;12510;56.468;-3.004;2024-01-30T06:28:19;53453.09;;;-148.32;nan
24390;BME280;12510;56.468;-3.004;2024-01-30T06:30:45;53461.06;;;-148.32;nan
24390;BME280;12510;56.468;-3.004;2024-01-30T06:33:12;53437.16;;;-148.32;nan
24390;BME280;12510;56.468;-3.004;2024-01-30T06:35:40;53461.06;;;-148.32;nan
24390;BME280;12510;56.468;-3.004;2024-01-30T06:38:06;53473.00;;;-148.32;nan
24390;BME280;12510;56.468;-3.004;2024-01-30T06:40:32;53469.00;;;-148.32;nan
24390;BME280;12510;56.468;-3.004;2024-01-30T06:43:00;53441.13;;;-148.32;nan
24390;BME280;12510;56.468;-3.004;2024-01-30T06:45:26;53441.13;;;-148.32;nan
24390;BME280;12510;56.468;-3.004;2024-01-30T06:47:52;53449.09;;;-148.32;nan
24390;BME280;12510;56.468;-3.004;2024-01-30T06:50:19;53453.09;;;-148.32;nan
24390;BME280;12510;56.468;-3.004;2024-01-30T06:52:45;53453.09;;;-148.32;nan
24390;BME280;12510;56.468;-3.004;2024-01-30T06:55:11;53457.06;;;-148.32;nan
24390;BME280;12510;56.468;-3.004;2024-01-30T06:57:37;53461.06;;;-148.32;nan
24390;BME280;12510;56.468;-3.004;2024-01-30T07:00:03;53445.13;;;-148.32;nan
24390;BME280;12510;56.468;-3.004;2024-01-30T07:02:30;53421.22;;;-148.32;nan
24390;BME280;12510;56.468;-3.004;2024-01-30T07:04:57;53431.19;;;-148.32;nan
24390;BME280;12510;56.468;-3.004;2024-01-30T07:07:23;53443.13;;;-148.32;nan
24390;BME280;12510;56.468;-3.004;2024-01-30T07:09:49;53435.16;;;-148.32;nan
24390;BME280;12510;56.468;-3.004;2024-01-30T07:12:18;53441.13;;;-148.32;nan
24390;BME280;12510;56.468;-3.004;2024-01-30T07:14:44;53441.13;;;-148.32;nan
24390;BME280;12510;56.468;-3.004;2024-01-30T07:17:10;53429.19;;;-148.32;nan
24390;BME280;12510;56.468;-3.004;2024-01-30T07:19:36;53461.06;;;-148.32;nan
24390;BME280;12510;56.468;-3.004;2024-01-30T07:22:02;53443.13;;;-148.32;nan
24390;BME280;12510;56.468;-3.004;2024-01-30T07:24:29;53459.06;;;-148.32;nan
24390;BME280;12510;56.468;-3.004;2024-01-30T07:26:55;53453.09;;;-148.32;nan
24390;BME280;12510;56.468;-3.004;2024-01-30T07:29:21;53445.13;;;-148.32;nan
24390;BME280;12510;56.468;-3.004;2024-01-30T07:31:48;53449.09;;;-148.32;nan
24390;BME280;12510;56.468;-3.004;2024-01-30T07:34:14;53447.09;;;-148.32;nan
24390;BME280;12510;56.468;-3.004;2024-01-30T07:36:40;53421.22;;;-148.32;nan
24390;BME280;12510;56.468;-3.004;2024-01-30T07:39:06;53435.16;;;-148.32;nan
24390;BME280;12510;56.468;-3.004;2024-01-30T07:41:32;53415.25;;;-148.32;nan
24390;BME280;12510;56.468;-3.004;2024-01-30T07:44:00;53421.22;;;-148.32;nan
24390;BME280;12510;56.468;-3.004;2024-01-30T07:46:26;53413.25;;;-148.32;nan
24390;BME280;12510;56.468;-3.004;2024-01-30T07:48:52;53423.22;;;-148.32;nan
24390;BME280;12510;56.468;-3.004;2024-01-30T07:51:19;53433.16;;;-148.32;nan
24390;BME280;12510;56.468;-3.004;2024-01-30T07:53:45;53421.22;;;-148.32;nan
24390;BME280;12510;56.468;-3.004;2024-01-30T07:56:12;53429.19;;;-148.32;nan
24390;BME280;12510;56.468;-3.004;2024-01-30T07:58:38;53435.16;;;-148.32;nan
24390;BME280;12510;56.468;-3.004;2024-01-30T08:01:04;53455.06;;;-148.32;nan
24390;BME280;12510;56.468;-3.004;2024-01-30T08:03:30;53437.16;;;-148.32;nan
24390;BME280;12510;56.468;-3.004;2024-01-30T08:05:56;53429.19;;;-148.32;nan
24390;BME280;12510;56.468;-3.004;2024-01-30T08:08:23;53407.28;;;-148.32;nan
24390;BME280;12510;56.468;-3.004;2024-01-30T08:10:49;53435.16;;;-148.32;nan
24390;BME280;12510;56.468;-3.004;2024-01-30T08:13:15;53453.09;;;-148.32;nan
24390;BME280;12510;56.468;-3.004;2024-01-30T08:15:41;53421.22;;;-148.32;nan
24390;BME280;12510;56.468;-3.004;2024-01-30T08:18:08;53419.22;;;-148.32;nan
24390;BME280;12510;56.468;-3.004;2024-01-30T08:20:34;53417.25;;;-148.32;nan
24390;BME280;12510;56.468;-3.004;2024-01-30T08:23:00;53397.31;;;-148.32;nan
24390;BME280;12510;56.468;-3.004;2024-01-30T08:25:26;53413.25;;;-148.32;nan
24390;BME280;12510;56.468;-3.004;2024-01-30T08:27:53;53439.16;;;-148.32;nan
24390;BME280;12510;56.468;-3.004;2024-01-30T08:30:19;53433.16;;;-148.32;nan
24390;BME280;12510;56.468;-3.004;2024-01-30T08:32:45;53431.19;;;-148.32;nan
24390;BME280;12510;56.468;-3.004;2024-01-30T08:35:11;53445.13;;;-148.32;nan
24390;BME280;12510;56.468;-3.004;2024-01-30T08:37:39;53421.22;;;-148.32;nan
24390;BME280;12510;56.468;-3.004;2024-01-30T08:40:06;53373.44;;;-148.32;nan
24390;BME280;12510;56.468;-3.004;2024-01-30T08:42:34;53373.44;;;-148.32;nan
24390;BME280;12510;56.468;-3.004;2024-01-30T08:45:00;53381.41;;;-148.32;nan
24390;BME280;12510;56.468;-3.004;2024-01-30T08:47:26;53371.44;;;-148.32;nan
24390;BME280;12510;56.468;-3.004;2024-01-30T08:49:52;53363.47;;;-148.32;nan
24390;BME280;12510;56.468;-3.004;2024-01-30T08:52:18;53327.63;;;-148.32;nan
24390;BME280;12510;56.468;-3.004;2024-01-30T08:54:45;53367.44;;;-148.32;nan
24390;BME280;12510;56.468;-3.004;2024-01-30T08:57:11;53345.53;;;-148.32;nan
24390;BME280;12510;56.468;-3.004;2024-01-30T08:59:37;53465.03;;;-148.32;nan
24390;BME280;12510;56.468;-3.004;2024-01-30T09:02:03;53365.47;;;-148.32;nan
24390;BME280;12510;56.468;-3.004;2024-01-30T09:04:32;53307.72;;;-148.32;nan
24390;BME280;12510;56.468;-3.004;2024-01-30T09:06:58;53333.59;;;-148.32;nan
24390;BME280;12510;56.468;-3.004;2024-01-30T09:09:24;53343.56;;;-148.32;nan
24390;BME280;12510;56.468;-3.004;2024-01-30T09:11:50;53343.56;;;-148.32;nan
24390;BME280;12510;56.468;-3.004;2024-01-30T09:14:17;53379.41;;;-148.32;nan
24390;BME280;12510;56.468;-3.004;2024-01-30T09:16:43;53325.63;;;-148.32;nan
24390;BME280;12510;56.468;-3.004;2024-01-30T09:19:09;53333.59;;;-148.32;nan
24390;BME280;12510;56.468;-3.004;2024-01-30T09:21:35;53365.47;;;-148.32;nan
24390;BME280;12510;56.468;-3.004;2024-01-30T09:24:02;53325.63;;;-148.32;nan
24390;BME280;12510;56.468;-3.004;2024-01-30T09:26:29;53353.50;;;-148.32;nan
24390;BME280;12510;56.468;-3.004;2024-01-30T09:28:55;53341.56;;;-148.32;nan
24390;BME280;12510;56.468;-3.004;2024-01-30T09:31:22;53351.53;;;-148.32;nan
24390;BME280;12510;56.468;-3.004;2024-01-30T09:33:48;53379.41;;;-148.32;nan
24390;BME280;12510;56.468;-3.004;2024-01-30T09:36:15;53369.44;;;-148.32;nan
24390;BME280;12510;56.468;-3.004;2024-01-30T09:38:44;53359.50;;;-148.32;nan
24390;BME280;12510;56.468;-3.004;2024-01-30T09:41:10;53347.53;;;-148.32;nan
24390;BME280;12510;56.468;-3.004;2024-01-30T09:43:37;53357.50;;;-148.32;nan
24390;BME280;12510;56.468;-3.004;2024-01-30T09:46:04;53367.44;;;-148.32;nan
24390;BME280;12510;56.468;-3.004;2024-01-30T09:48:31;53329.63;;;-148.32;nan
24390;BME280;12510;56.468;-3.004;2024-01-30T09:50:58;53349.53;;;-148.32;nan
24390;BME280;12510;56.468;-3.004;2024-01-30T09:53:24;53353.50;;;-148.32;nan
24390;BME280;12510;56.468;-3.004;2024-01-30T09:55:51;53347.53;;;-148.32;nan
24390;BME280;12510;56.468;-3.004;2024-01-30T09:58:17;53333.59;;;-148.32;nan
24390;BME280;12510;56.468;-3.004;2024-01-30T10:00:43;53365.47;;;-148.32;nan
24390;BME280;12510;56.468;-3.004;2024-01-30T10:03:09;53349.53;;;-148.32;nan
24390;BME280;12510;56.468;-3.004;2024-01-30T10:05:36;53357.50;;;-148.32;nan
24390;BME280;12510;56.468;-3.004;2024-01-30T10:08:06;53365.47;;;-148.32;nan
24390;BME280;12510;56.468;-3.004;2024-01-30T10:10:34;53357.50;;;-148.32;nan
24390;BME280;12510;56.468;-3.004;2024-01-30T10:13:01;53363.47;;;-148.32;nan
24390;BME280;12510;56.468;-3.004;2024-01-30T10:15:27;53343.56;;;-148.32;nan
24390;BME280;12510;56.468;-3.004;2024-01-30T10:17:54;53351.53;;;-148.32;nan
24390;BME280;12510;56.468;-3.004;2024-01-30T10:20:20;53375.41;;;-148.32;nan
24390;BME280;12510;56.468;-3.004;2024-01-30T10:22:48;53361.47;;;-148.32;nan
24390;BME280;12510;56.468;-3.004;2024-01-30T10:25:15;53381.41;;;-148.32;nan
24390;BME280;12510;56.468;-3.004;2024-01-30T10:27:41;53389.34;;;-148.32;nan
24390;BME280;12510;56.468;-3.004;2024-01-30T10:30:07;53373.44;;;-148.32;nan
24390;BME280;12510;56.468;-3.004;2024-01-30T10:32:34;53369.44;;;-148.32;nan
24390;BME280;12510;56.468;-3.004;2024-01-30T10:35:00;53377.41;;;-148.32;nan
24390;BME280;12510;56.468;-3.004;2024-01-30T10:37:26;53355.50;;;-148.32;nan
24390;BME280;12510;56.468;-3.004;2024-01-30T10:39:55;53355.50;;;-148.32;nan
24390;BME280;12510;56.468;-3.004;2024-01-30T10:42:23;53367.44;;;-148.32;nan
24390;BME280;12510;56.468;-3.004;2024-01-30T10:47:27;53387.38;;;-148.32;nan
24390;BME280;12510;56.468;-3.004;2024-01-30T10:49:56;53363.47;;;-148.32;nan
24390;BME280;12510;56.468;-3.004;2024-01-30T10:52:23;53401.31;;;-148.32;nan
24390;BME280;12510;56.468;-3.004;2024-01-30T10:54:53;53353.50;;;-148.32;nan
24390;BME280;12510;56.468;-3.004;2024-01-30T10:57:19;53389.34;;;-148.32;nan
24390;BME280;12510;56.468;-3.004;2024-01-30T10:59:47;53359.50;;;-148.32;nan
24390;BME280;12510;56.468;-3.004;2024-01-30T11:02:14;53357.50;;;-148.32;nan
24390;BME280;12510;56.468;-3.004;2024-01-30T11:04:40;53379.41;;;-148.32;nan
24390;BME280;12510;56.468;-3.004;2024-01-30T11:07:23;53371.44;;;-148.32;nan
24390;BME280;12510;56.468;-3.004;2024-01-30T11:09:50;53387.38;;;-148.32;nan
24390;BME280;12510;56.468;-3.004;2024-01-30T11:12:18;53375.41;;;-148.32;nan
24390;BME280;12510;56.468;-3.004;2024-01-30T11:14:47;53357.50;;;-148.32;nan
24390;BME280;12510;56.468;-3.004;2024-01-30T11:17:13;53381.41;;;-148.32;nan
24390;BME280;12510;56.468;-3.004;2024-01-30T11:19:39;53375.41;;;-148.32;nan
24390;BME280;12510;56.468;-3.004;2024-01-30T11:22:07;53393.34;;;-148.32;nan
24390;BME280;12510;56.468;-3.004;2024-01-30T11:24:38;53385.38;;;-148.32;nan
24390;BME280;12510;56.468;-3.004;2024-01-30T11:27:07;53407.28;;;-148.32;nan
24390;BME280;12510;56.468;-3.004;2024-01-30T11:29:34;53369.44;;;-148.32;nan
24390;BME280;12510;56.468;-3.004;2024-01-30T11:32:00;53377.41;;;-148.32;nan
24390;BME280;12510;56.468;-3.004;2024-01-30T11:34:26;53387.38;;;-148.32;nan
24390;BME280;12510;56.468;-3.004;2024-01-30T11:36:56;53403.28;;;-148.32;nan
24390;BME280;12510;56.468;-3.004;2024-01-30T11:39:26;53399.31;;;-148.32;nan
24390;BME280;12510;56.468;-3.004;2024-01-30T11:41:52;53371.44;;;-148.32;nan
24390;BME280;12510;56.468;-3.004;2024-01-30T11:44:22;53381.41;;;-148.32;nan
24390;BME280;12510;56.468;-3.004;2024-01-30T11:46:49;53373.44;;;-148.32;nan
24390;BME280;12510;56.468;-3.004;2024-01-30T11:49:16;53365.47;;;-148.32;nan
24390;BME280;12510;56.468;-3.004;2024-01-30T11:51:43;53385.38;;;-148.32;nan
24390;BME280;12510;56.468;-3.004;2024-01-30T11:54:11;53375.41;;;-148.32;nan
24390;BME280;12510;56.468;-3.004;2024-01-30T11:56:37;53377.41;;;-148.32;nan
24390;BME280;12510;56.468;-3.004;2024-01-30T11:59:04;53377.41;;;-148.32;nan
24390;BME280;12510;56.468;-3.004;2024-01-30T12:01:32;53367.44;;;-148.32;nan
24390;BME280;12510;56.468;-3.004;2024-01-30T12:03:59;53393.34;;;-148.32;nan
24390;BME280;12510;56.468;-3.004;2024-01-30T12:06:25;53393.34;;;-148.32;nan
24390;BME280;12510;56.468;-3.004;2024-01-30T12:09:01;53401.31;;;-148.32;nan
24390;BME280;12510;56.468;-3.004;2024-01-30T12:11:32;53363.47;;;-148.32;nan
24390;BME280;12510;56.468;-3.004;2024-01-30T12:13:58;53379.41;;;-148.32;nan
24390;BME280;12510;56.468;-3.004;2024-01-30T12:16:24;53371.44;;;-148.32;nan
24390;BME280;12510;56.468;-3.004;2024-01-30T12:18:58;53371.44;;;-148.32;nan
24390;BME280;12510;56.468;-3.004;2024-01-30T12:21:24;53383.38;;;-148.32;nan
24390;BME280;12510;56.468;-3.004;2024-01-30T12:23:51;53387.38;;;-148.32;nan
24390;BME280;12510;56.468;-3.004;2024-01-30T12:26:17;53393.34;;;-148.32;nan
24390;BME280;12510;56.468;-3.004;2024-01-30T12:28:47;53373.44;;;-148.32;nan
24390;BME280;12510;56.468;-3.004;2024-01-30T12:31:13;53403.28;;;-148.32;nan
24390;BME280;12510;56.468;-3.004;2024-01-30T12:33:39;53395.34;;;-148.32;nan
24390;BME280;12510;56.468;-3.004;2024-01-30T12:36:05;53409.28;;;-148.32;nan
24390;BME280;12510;56.468;-3.004;2024-01-30T12:38:32;53399.31;;;-148.32;nan
24390;BME280;12510;56.468;-3.004;2024-01-30T12:40:59;53381.41;;;-148.32;nan
24390;BME280;12510;56.468;-3.004;2024-01-30T12:43:25;53377.41;;;-148.32;nan
24390;BME280;12510;56.468;-3.004;2024-01-30T12:45:54;53369.44;;;-148.32;nan
24390;BME280;12510;56.468;-3.004;2024-01-30T12:48:20;53375.41;;;-148.32;nan
24390;BME280;12510;56.468;-3.004;2024-01-30T12:50:46;53393.34;;;-148.32;nan